Date,TemperatureHighF,TemperatureAvgF,TemperatureLowF,DewpointHighF,DewpointAvgF,DewpointLowF,HumidityHigh,HumidityAvg,HumidityLow,PressureMaxIn,PressureMinIn,WindSpeedMaxMPH,WindSpeedAvgMPH,GustSpeedMaxMPH,PrecipitationSumIn
2014-1-1,70.3,66.4,63.1,68.2,61.5,46.4,98,85,53,30.33,30.12,8,1,8,0.00
2014-1-2,80.4,52.2,0.0,67.1,46.6,0.0,98,60,42,30.15,29.91,17,2,17,0.00
2014-1-3,49.3,32.9,0.0,32.8,20.9,0.0,54,34,47,30.33,30.00,10,2,10,0.00
2014-1-4,69.4,59.0,48.7,61.2,50.6,32.8,95,75,51,30.30,30.18,4,0,4,0.00
2014-1-5,83.7,70.0,60.4,71.1,58.9,43.2,98,75,25,30.18,30.06,6,1,6,0.00
2014-1-6,81.0,65.1,46.2,70.2,45.5,-0.2,98,60,14,30.36,30.06,18,3,18,0.00
2014-1-7,53.6,44.0,37.8,32.6,10.4,-4.1,76,29,15,30.50,30.36,12,4,12,0.00
2014-1-8,70.3,57.9,38.8,51.7,41.2,29.1,97,60,22,30.44,30.33,18,3,18,0.00
2014-1-9,71.1,68.8,65.7,69.0,63.6,50.6,96,84,56,30.41,30.27,14,5,14,0.00
2014-1-10,81.3,73.0,66.9,74.4,64.0,50.1,98,77,34,30.30,30.15,9,1,9,0.00
2014-1-11,84.9,75.4,66.9,72.4,60.9,47.9,98,67,30,30.21,30.00,14,2,14,0.00
2014-1-12,73.8,63.6,49.6,67.4,39.1,12.1,98,54,11,30.30,30.06,11,2,11,0.00
2014-1-13,84.2,65.0,46.6,67.6,47.0,28.1,98,61,13,30.27,30.06,6,1,6,0.00
2014-1-14,77.7,71.2,67.8,70.3,62.9,45.7,97,79,35,30.12,30.03,14,1,14,0.00
2014-1-15,68.9,61.1,54.5,59.2,40.3,28.3,93,50,26,30.15,30.03,12,1,12,0.00
2014-1-16,54.5,53.9,53.2,39.5,37.6,36.6,59,54,51,30.06,30.00,0,0,0,0.00
2014-1-17,64.0,48.2,43.0,22.5,15.8,3.7,42,29,11,30.27,30.18,4,0,4,0.00
2014-1-18,63.1,50.5,36.7,40.0,14.5,-3.2,75,28,11,30.36,30.18,13,2,13,0.00
2014-1-19,73.6,49.7,28.6,35.6,17.1,7.0,72,32,10,30.33,30.18,15,2,15,0.00
2014-1-20,76.3,56.9,40.6,53.8,29.1,8.9,98,43,10,30.27,30.09,15,2,15,0.00
2014-1-21,76.8,61.5,49.1,58.3,39.2,14.9,98,51,10,30.12,29.88,21,4,21,0.00
2014-1-22,63.7,52.1,39.9,31.1,12.0,2.5,40,22,11,30.18,29.94,14,3,14,0.00